VILK/LKO METAR and TAF weather

Enter ICAO airport designator
Station Type Date Time Source
VILK METAR 2019/08/24 22:00 UTC NOAA

VILK 242200Z 06004KT 2000 BR SCT020 BKN090 27/26 Q1003 NOSIG


Station Type Date Time Source
VILK Decoded METAR 2019/08/24 22:00 UTC NOAA

Station name not available
Aug 24, 2019 - 06:00 PM EDT / 2019.08.24 2200 UTC
Wind: from the ENE (060 degrees) at 5 MPH (4 KT):0
Visibility: 1 mile(s):0
Sky conditions: mostly cloudy
Weather: mist
Temperature: 80 F (27 C)
Dew Point: 78 F (26 C)
Relative Humidity: 94%
Pressure (altimeter): 29.62 in. Hg (1003 hPa)
ob: VILK 242200Z 06004KT 2000 BR SCT020 BKN090 27/26 Q1003 NOSIG
cycle: 22

Station Type Date Time Source
VILK TAF 2019/08/24 18:24 UTC NOAA

TAF VILK 241700Z 2418/2524 03004KT 2000 BR SCT020 BKN090
TEMPO 2422/2502 1500 -TSRA RA SCT018 FEW030CB OVC090
BECMG 2504/2506 14005KT 3000 BR SCT020 BKN100
TEMPO 2508/2512 FEW030CB
BECMG 2512/2514 3000 HZ BR
TEMPO 2518/2522 1500 -TSRA RA SCT018 FEW030CB OVC090

Example: see airport list